createdAt,value
2023-02-09T00:02:17.555Z,100.00
2023-02-09T00:04:45.348Z,100.00
2023-02-09T00:07:13.074Z,100.00
2023-02-09T00:09:40.885Z,100.00
2023-02-09T00:12:26.209Z,100.00
2023-02-09T00:14:53.937Z,100.00
2023-02-09T00:17:23.077Z,100.00
2023-02-09T00:19:50.834Z,100.00
2023-02-09T00:22:18.528Z,100.00
2023-02-09T00:24:46.493Z,100.00
2023-02-09T00:27:14.188Z,100.00
2023-02-09T00:29:41.909Z,100.00
2023-02-09T00:32:09.657Z,100.00
2023-02-09T00:34:39.483Z,100.00
2023-02-09T00:37:07.193Z,100.00
2023-02-09T00:39:34.983Z,100.00
2023-02-09T00:42:08.378Z,100.00
2023-02-09T00:44:37.191Z,100.00
2023-02-09T00:47:06.005Z,100.00
2023-02-09T00:49:34.912Z,100.00
2023-02-09T00:52:04.146Z,100.00
2023-02-09T00:54:31.884Z,100.00
2023-02-09T00:57:05.142Z,100.00
2023-02-09T00:59:34.684Z,100.00
2023-02-09T01:02:03.014Z,100.00
2023-02-09T01:04:30.967Z,100.00
2023-02-09T01:06:58.748Z,100.00
2023-02-09T01:09:27.880Z,100.00
2023-02-09T01:11:55.664Z,100.00
2023-02-09T01:14:24.211Z,100.00
2023-02-09T01:16:52.015Z,100.00
2023-02-09T01:19:20.165Z,100.00
2023-02-09T01:21:49.100Z,100.00
2023-02-09T01:24:17.116Z,100.00
2023-02-09T01:26:46.360Z,100.00
2023-02-09T01:29:15.337Z,100.00
2023-02-09T01:31:43.357Z,100.00
2023-02-09T01:34:17.884Z,100.00
2023-02-09T01:36:46.095Z,100.00
2023-02-09T01:39:15.008Z,100.00
2023-02-09T01:41:43.200Z,100.00
2023-02-09T01:44:44.291Z,100.00
2023-02-09T01:47:16.385Z,100.00
2023-02-09T01:49:47.247Z,100.00
2023-02-09T01:52:19.392Z,100.00
2023-02-09T01:54:52.540Z,100.00
2023-02-09T01:57:25.595Z,100.00
2023-02-09T01:59:59.422Z,100.00
2023-02-09T02:02:28.701Z,100.00
2023-02-09T02:04:56.784Z,100.00
2023-02-09T02:07:30.580Z,100.00
2023-02-09T02:09:58.453Z,100.00
2023-02-09T02:12:27.074Z,100.00
2023-02-09T02:14:54.821Z,100.00
2023-02-09T02:17:33.443Z,100.00
2023-02-09T02:20:28.432Z,100.00
2023-02-09T02:23:06.324Z,100.00
2023-02-09T02:25:56.497Z,100.00
2023-02-09T02:28:42.983Z,100.00
2023-02-09T02:31:35.078Z,100.00
2023-02-09T02:34:09.598Z,100.00
2023-02-09T02:36:44.147Z,100.00
2023-02-09T02:39:19.319Z,100.00
2023-02-09T02:42:15.261Z,100.00
2023-02-09T02:44:47.901Z,100.00
2023-02-09T02:47:21.428Z,100.00
2023-02-09T02:49:54.370Z,100.00
2023-02-09T02:52:22.374Z,100.00
2023-02-09T02:54:56.374Z,100.00
2023-02-09T02:57:29.705Z,100.00
2023-02-09T03:00:02.498Z,100.00
2023-02-09T03:02:35.476Z,100.00
2023-02-09T03:05:05.230Z,100.00
2023-02-09T03:07:33.512Z,100.00
2023-02-09T03:10:03.186Z,100.00
2023-02-09T03:12:42.741Z,100.00
2023-02-09T03:15:19.727Z,100.00
2023-02-09T03:17:55.910Z,100.00
2023-02-09T03:20:33.402Z,100.00
2023-02-09T03:23:02.962Z,100.00
2023-02-09T03:25:33.466Z,100.00
2023-02-09T03:28:07.466Z,100.00
2023-02-09T03:30:36.656Z,100.00
2023-02-09T03:33:08.759Z,100.00
2023-02-09T03:35:42.309Z,100.00
2023-02-09T03:38:10.046Z,100.00
2023-02-09T03:40:37.899Z,100.00
2023-02-09T03:43:05.626Z,100.00
2023-02-09T03:45:33.396Z,100.00
2023-02-09T03:48:02.211Z,100.00
2023-02-09T03:50:32.027Z,100.00
2023-02-09T03:53:00.118Z,100.00
2023-02-09T03:55:27.896Z,100.00
2023-02-09T03:57:55.721Z,100.00
2023-02-09T04:00:23.641Z,100.00
2023-02-09T04:02:51.435Z,100.00
2023-02-09T04:05:19.399Z,100.00
2023-02-09T04:07:48.610Z,100.00
2023-02-09T04:10:16.611Z,100.00
2023-02-09T04:12:44.399Z,100.00
2023-02-09T04:15:12.203Z,100.00
2023-02-09T04:17:39.932Z,100.00
2023-02-09T04:20:08.370Z,100.00
2023-02-09T04:22:36.101Z,100.00
2023-02-09T04:25:05.622Z,100.00
2023-02-09T04:27:33.338Z,100.00
2023-02-09T04:30:01.083Z,100.00
2023-02-09T04:32:28.797Z,100.00
2023-02-09T04:34:56.475Z,100.00
2023-02-09T04:37:24.173Z,100.00
2023-02-09T04:39:51.957Z,100.00
2023-02-09T04:42:21.085Z,100.00
2023-02-09T04:44:48.789Z,100.00
2023-02-09T04:47:16.516Z,100.00
2023-02-09T04:49:44.532Z,100.00
2023-02-09T04:52:12.254Z,100.00
2023-02-09T04:54:39.976Z,100.00
2023-02-09T04:57:25.312Z,100.00
2023-02-09T04:59:54.427Z,100.00
2023-02-09T05:02:22.136Z,100.00
2023-02-09T05:04:49.849Z,100.00
2023-02-09T05:07:17.634Z,100.00
2023-02-09T05:09:45.403Z,100.00
2023-02-09T05:12:13.167Z,100.00
2023-02-09T05:14:40.918Z,100.00
2023-02-09T05:17:10.013Z,100.00
2023-02-09T05:19:37.784Z,100.00
2023-02-09T05:22:05.552Z,100.00
2023-02-09T05:24:33.288Z,100.00
2023-02-09T05:27:01.117Z,100.00
2023-02-09T05:29:28.998Z,100.00
2023-02-09T05:31:56.783Z,100.00
2023-02-09T05:34:25.957Z,100.00
2023-02-09T05:36:53.675Z,100.00
2023-02-09T05:39:21.687Z,100.00
2023-02-09T05:42:09.102Z,100.00
2023-02-09T05:44:36.821Z,100.00
2023-02-09T05:47:04.684Z,100.00
2023-02-09T05:49:34.555Z,100.00
2023-02-09T05:52:02.637Z,100.00
2023-02-09T05:54:30.586Z,100.00
2023-02-09T05:56:58.608Z,100.00
2023-02-09T05:59:26.398Z,100.00
2023-02-09T06:01:54.157Z,100.00
2023-02-09T06:04:22.048Z,100.00
2023-02-09T06:06:51.121Z,100.00
2023-02-09T06:09:18.958Z,100.00
2023-02-09T06:11:46.805Z,100.00
2023-02-09T06:14:14.541Z,100.00
2023-02-09T06:16:42.326Z,100.00
2023-02-09T06:19:12.603Z,100.00
2023-02-09T06:21:40.378Z,100.00
2023-02-09T06:24:09.512Z,100.00
2023-02-09T06:26:37.537Z,100.00
2023-02-09T06:29:05.564Z,100.00
2023-02-09T06:31:34.072Z,100.00
2023-02-09T06:34:01.910Z,100.00
2023-02-09T06:36:29.650Z,100.00
2023-02-09T06:38:57.363Z,100.00
2023-02-09T06:41:26.481Z,100.00
2023-02-09T06:43:54.212Z,100.00
2023-02-09T06:46:22.070Z,100.00
2023-02-09T06:48:50.239Z,100.00
2023-02-09T06:51:18.269Z,100.00
2023-02-09T06:53:46.251Z,100.00
2023-02-09T06:56:14.703Z,100.00
2023-02-09T06:58:43.791Z,100.00
2023-02-09T07:01:13.160Z,100.00
2023-02-09T07:03:40.908Z,100.00
2023-02-09T07:06:10.749Z,100.00
2023-02-09T07:08:39.134Z,100.00
2023-02-09T07:11:09.070Z,100.00
2023-02-09T07:13:37.440Z,100.00
2023-02-09T07:16:09.432Z,100.00
2023-02-09T07:18:37.703Z,100.00
2023-02-09T07:21:07.702Z,100.00
2023-02-09T07:23:35.868Z,100.00
2023-02-09T07:26:04.488Z,100.00
2023-02-09T07:28:32.778Z,100.00
2023-02-09T07:31:05.017Z,100.00
2023-02-09T07:33:34.994Z,100.00
2023-02-09T07:36:05.231Z,100.00
2023-02-09T07:38:33.209Z,100.00
2023-02-09T07:41:01.156Z,100.00
2023-02-09T07:43:29.236Z,100.00
2023-02-09T07:46:01.496Z,100.00
2023-02-09T07:48:29.325Z,100.00
2023-02-09T07:50:58.925Z,100.00
2023-02-09T07:53:26.943Z,100.00
2023-02-09T07:55:54.793Z,100.00
2023-02-09T07:58:22.835Z,100.00
2023-02-09T08:00:51.939Z,100.00
2023-02-09T08:03:22.148Z,100.00
2023-02-09T08:05:59.357Z,100.00
2023-02-09T08:08:28.557Z,100.00
2023-02-09T08:10:59.372Z,100.00
2023-02-09T08:13:29.848Z,100.00
2023-02-09T08:16:01.716Z,100.00
2023-02-09T08:18:35.469Z,100.00
2023-02-09T08:21:05.905Z,100.00
2023-02-09T08:23:38.942Z,100.00
2023-02-09T08:26:11.083Z,100.00
2023-02-09T08:28:44.922Z,100.00
2023-02-09T08:31:13.883Z,100.00
2023-02-09T08:33:42.336Z,100.00
2023-02-09T08:36:11.524Z,100.00
2023-02-09T08:38:41.129Z,100.00
2023-02-09T08:41:11.787Z,100.00
2023-02-09T08:43:39.596Z,100.00
2023-02-09T08:46:09.932Z,100.00
2023-02-09T08:48:40.439Z,100.00
2023-02-09T08:51:10.516Z,100.00
2023-02-09T08:53:38.248Z,100.00
2023-02-09T08:56:08.758Z,100.00
2023-02-09T08:58:36.629Z,100.00
2023-02-09T09:01:05.508Z,100.00
2023-02-09T09:03:33.546Z,100.00
2023-02-09T09:06:03.294Z,100.00
2023-02-09T09:08:32.983Z,100.00
2023-02-09T09:11:01.160Z,100.00
2023-02-09T09:13:30.618Z,100.00
2023-02-09T09:15:58.594Z,100.00
2023-02-09T09:18:27.344Z,100.00
2023-02-09T09:20:56.432Z,100.00
2023-02-09T09:23:24.166Z,100.00
2023-02-09T09:25:52.029Z,100.00
2023-02-09T09:28:19.829Z,100.00
2023-02-09T09:30:48.961Z,100.00
2023-02-09T09:33:16.799Z,100.00
2023-02-09T09:35:44.751Z,100.00
2023-02-09T09:38:13.176Z,100.00
2023-02-09T09:40:42.826Z,100.00
2023-02-09T09:43:23.983Z,100.00
2023-02-09T09:45:53.238Z,100.00
2023-02-09T09:48:25.480Z,96.93
2023-02-09T09:50:57.303Z,96.50
2023-02-09T09:53:33.098Z,94.89
2023-02-09T09:56:06.129Z,89.73
2023-02-09T09:58:35.615Z,86.63
2023-02-09T10:01:06.616Z,85.19
2023-02-09T10:03:34.386Z,83.60
2023-02-09T10:06:11.658Z,90.30
2023-02-09T10:08:44.651Z,89.66
2023-02-09T10:11:14.385Z,96.54
2023-02-09T10:13:45.784Z,94.02
2023-02-09T10:16:19.384Z,95.82
2023-02-09T10:18:51.287Z,83.75
2023-02-09T10:21:20.209Z,81.76
2023-02-09T10:23:50.227Z,76.72
2023-02-09T10:26:24.400Z,80.49
2023-02-09T10:28:54.431Z,77.58
2023-02-09T10:31:27.748Z,66.30
2023-02-09T10:33:59.769Z,74.62
2023-02-09T10:36:30.341Z,70.78
2023-02-09T10:39:16.554Z,66.17
2023-02-09T10:41:47.756Z,63.54
2023-02-09T10:44:20.385Z,75.55
2023-02-09T10:46:50.122Z,73.30
2023-02-09T10:49:29.343Z,72.56
2023-02-09T10:52:16.906Z,71.05
2023-02-09T10:54:49.448Z,66.66
2023-02-09T10:57:23.122Z,73.64
2023-02-09T10:59:55.411Z,79.87
2023-02-09T11:02:35.470Z,85.93
2023-02-09T11:05:03.697Z,88.42
2023-02-09T11:07:38.496Z,92.69
2023-02-09T11:10:13.695Z,83.91
2023-02-09T11:12:43.464Z,85.21
2023-02-09T11:15:13.881Z,82.30
2023-02-09T11:17:45.673Z,81.65
2023-02-09T11:20:23.277Z,89.04
2023-02-09T11:23:32.726Z,86.44
2023-02-09T11:26:05.046Z,85.49
2023-02-09T11:28:40.637Z,77.02
2023-02-09T11:31:25.480Z,71.75
2023-02-09T11:34:04.701Z,75.18
2023-02-09T11:36:42.876Z,78.44
2023-02-09T11:39:18.322Z,79.22
2023-02-09T11:42:08.636Z,77.58
2023-02-09T11:44:43.243Z,82.26
2023-02-09T11:47:15.939Z,78.76
2023-02-09T11:49:50.103Z,79.75
2023-02-09T11:52:23.180Z,77.93
2023-02-09T11:54:56.038Z,77.12
2023-02-09T11:57:34.371Z,74.86
2023-02-09T12:00:06.455Z,76.69
2023-02-09T12:02:46.351Z,70.03
2023-02-09T12:05:19.567Z,75.11
2023-02-09T12:08:02.859Z,72.30
2023-02-09T12:10:38.651Z,74.60
2023-02-09T12:13:16.092Z,75.43
2023-02-09T12:15:46.790Z,68.15
2023-02-09T12:18:18.934Z,66.74
2023-02-09T12:20:53.248Z,67.67
2023-02-09T12:23:31.349Z,64.78
2023-02-09T12:26:00.629Z,67.46
2023-02-09T12:28:45.108Z,65.15
2023-02-09T12:31:19.194Z,66.66
2023-02-09T12:34:29.776Z,64.16
2023-02-09T12:37:16.892Z,70.18
2023-02-09T12:40:32.569Z,66.84
2023-02-09T12:43:12.377Z,72.28
2023-02-09T12:45:42.052Z,75.58
2023-02-09T12:48:17.619Z,78.78
2023-02-09T12:50:52.303Z,77.55
2023-02-09T12:53:47.733Z,78.72
2023-02-09T12:56:31.532Z,78.79
2023-02-09T12:59:17.881Z,80.40
2023-02-09T13:02:15.956Z,76.70
2023-02-09T13:04:57.216Z,77.29
2023-02-09T13:07:36.368Z,79.71
2023-02-09T13:10:17.070Z,82.09
2023-02-09T13:12:53.350Z,79.88
2023-02-09T13:15:21.608Z,81.33
2023-02-09T13:18:03.415Z,86.53
2023-02-09T13:20:58.276Z,82.58
2023-02-09T13:23:34.970Z,82.63
2023-02-09T13:26:17.707Z,85.36
2023-02-09T13:28:45.443Z,86.94
2023-02-09T13:31:31.926Z,89.12
2023-02-09T13:34:03.824Z,94.26
2023-02-09T13:36:41.480Z,95.51
2023-02-09T13:39:09.498Z,94.26
2023-02-09T13:41:41.184Z,97.93
2023-02-09T13:44:26.600Z,96.25
2023-02-09T13:46:56.978Z,97.74
2023-02-09T13:49:26.116Z,97.94
2023-02-09T13:52:10.783Z,98.17
2023-02-09T13:54:38.794Z,94.86
2023-02-09T13:57:12.452Z,97.03
2023-02-09T13:59:44.478Z,100.00
2023-02-09T14:02:21.127Z,100.00
2023-02-09T14:04:52.561Z,100.00
2023-02-09T14:07:23.707Z,100.00
2023-02-09T14:09:54.879Z,100.00
2023-02-09T14:12:47.454Z,100.00
2023-02-09T14:15:33.355Z,100.00
2023-02-09T14:18:01.158Z,100.00
2023-02-09T14:20:29.058Z,100.00
2023-02-09T14:22:58.948Z,100.00
2023-02-09T14:25:27.830Z,100.00
2023-02-09T14:27:58.126Z,100.00
2023-02-09T14:30:29.598Z,100.00
2023-02-09T14:32:59.259Z,100.00
2023-02-09T14:35:29.500Z,100.00
2023-02-09T14:37:59.090Z,100.00
2023-02-09T14:40:31.971Z,100.00
2023-02-09T14:43:03.880Z,100.00
2023-02-09T14:45:40.029Z,100.00
2023-02-09T14:48:19.521Z,100.00
2023-02-09T14:50:47.893Z,100.00
2023-02-09T14:53:17.265Z,100.00
2023-02-09T14:55:45.581Z,100.00
2023-02-09T14:58:20.570Z,100.00
2023-02-09T15:00:48.374Z,100.00
2023-02-09T15:03:16.134Z,100.00
2023-02-09T15:05:44.565Z,100.00
2023-02-09T15:08:16.632Z,100.00
2023-02-09T15:10:48.145Z,100.00
2023-02-09T15:13:17.424Z,100.00
2023-02-09T15:15:46.308Z,100.00
2023-02-09T15:18:20.331Z,100.00
2023-02-09T15:20:48.396Z,100.00
2023-02-09T15:23:16.678Z,100.00
2023-02-09T15:25:45.313Z,100.00
2023-02-09T15:28:24.650Z,100.00
2023-02-09T15:30:52.472Z,100.00
2023-02-09T15:33:20.284Z,100.00
2023-02-09T15:35:48.411Z,100.00
2023-02-09T15:38:18.360Z,100.00
2023-02-09T15:41:05.987Z,100.00
2023-02-09T15:43:53.202Z,100.00
2023-02-09T15:46:39.075Z,100.00
2023-02-09T15:49:07.598Z,100.00
2023-02-09T15:51:38.424Z,100.00
2023-02-09T15:54:11.696Z,100.00
2023-02-09T15:56:40.416Z,100.00
2023-02-09T15:59:17.634Z,100.00
2023-02-09T16:01:45.717Z,100.00
2023-02-09T16:04:14.777Z,100.00
2023-02-09T16:06:47.117Z,100.00
2023-02-09T16:09:19.947Z,100.00
2023-02-09T16:11:48.393Z,100.00
2023-02-09T16:14:20.502Z,100.00
2023-02-09T16:16:49.029Z,100.00
2023-02-09T16:19:17.903Z,100.00
2023-02-09T16:21:50.002Z,100.00
2023-02-09T16:24:23.440Z,100.00
2023-02-09T16:26:51.280Z,100.00
2023-02-09T16:29:20.399Z,100.00
2023-02-09T16:31:48.730Z,100.00
2023-02-09T16:34:16.493Z,100.00
2023-02-09T16:36:45.066Z,100.00
2023-02-09T16:39:19.022Z,100.00
2023-02-09T16:41:50.703Z,100.00
2023-02-09T16:44:22.446Z,100.00
2023-02-09T16:46:52.023Z,100.00
2023-02-09T16:49:41.481Z,100.00
2023-02-09T16:52:16.106Z,100.00
2023-02-09T16:54:46.855Z,100.00
2023-02-09T16:57:16.222Z,100.00
2023-02-09T16:59:45.583Z,100.00
2023-02-09T17:02:34.871Z,100.00
2023-02-09T17:05:08.809Z,100.00
2023-02-09T17:07:52.515Z,100.00
2023-02-09T17:10:24.774Z,100.00
2023-02-09T17:12:53.863Z,100.00
2023-02-09T17:15:31.466Z,100.00
2023-02-09T17:18:04.049Z,100.00
2023-02-09T17:20:37.161Z,100.00
2023-02-09T17:23:05.374Z,100.00
2023-02-09T17:25:33.442Z,100.00
2023-02-09T17:28:01.235Z,100.00
2023-02-09T17:30:33.602Z,100.00
2023-02-09T17:33:03.684Z,100.00
2023-02-09T17:36:17.739Z,100.00
2023-02-09T17:38:24.883Z,100.00
2023-02-09T17:40:54.610Z,100.00
2023-02-09T17:43:22.588Z,100.00
2023-02-09T17:45:52.243Z,100.00
2023-02-09T17:48:20.943Z,100.00
2023-02-09T17:50:50.231Z,100.00
2023-02-09T17:53:20.677Z,100.00
2023-02-09T17:55:49.502Z,100.00
2023-02-09T17:58:17.380Z,100.00
2023-02-09T18:00:46.316Z,100.00
2023-02-09T18:03:18.646Z,100.00
2023-02-09T18:05:50.089Z,100.00
2023-02-09T18:08:18.782Z,100.00
2023-02-09T18:10:46.501Z,100.00
2023-02-09T18:13:18.667Z,100.00
2023-02-09T18:15:48.176Z,100.00
2023-02-09T18:18:17.474Z,100.00
2023-02-09T18:20:45.381Z,100.00
2023-02-09T18:23:16.277Z,100.00
2023-02-09T18:25:44.427Z,100.00
2023-02-09T18:28:16.087Z,100.00
2023-02-09T18:30:44.587Z,100.00
2023-02-09T18:33:13.395Z,100.00
2023-02-09T18:35:44.852Z,100.00
2023-02-09T18:38:14.903Z,100.00
2023-02-09T18:40:42.757Z,100.00
2023-02-09T18:43:14.574Z,100.00
2023-02-09T18:45:42.522Z,100.00
2023-02-09T18:48:11.538Z,100.00
2023-02-09T18:50:40.147Z,100.00
2023-02-09T18:53:09.483Z,100.00
2023-02-09T18:55:37.349Z,100.00
2023-02-09T18:58:09.482Z,100.00
2023-02-09T19:00:37.507Z,100.00
2023-02-09T19:03:05.436Z,100.00
2023-02-09T19:05:34.647Z,100.00
2023-02-09T19:08:02.725Z,100.00
2023-02-09T19:10:33.221Z,100.00
2023-02-09T19:13:03.893Z,100.00
2023-02-09T19:15:32.939Z,100.00
2023-02-09T19:18:00.831Z,100.00
2023-02-09T19:20:33.978Z,100.00
2023-02-09T19:23:02.509Z,100.00
2023-02-09T19:25:32.339Z,100.00
2023-02-09T19:28:00.185Z,100.00
2023-02-09T19:30:31.645Z,100.00
2023-02-09T19:33:00.148Z,100.00
2023-02-09T19:35:29.357Z,100.00
2023-02-09T19:37:58.579Z,100.00
2023-02-09T19:40:36.093Z,100.00
2023-02-09T19:43:06.118Z,100.00
2023-02-09T19:45:39.932Z,100.00
2023-02-09T19:48:09.817Z,100.00
2023-02-09T19:50:40.770Z,100.00
2023-02-09T19:53:09.310Z,100.00
2023-02-09T19:55:38.960Z,100.00
2023-02-09T19:58:08.074Z,100.00
2023-02-09T20:00:35.980Z,100.00
2023-02-09T20:03:03.753Z,100.00
2023-02-09T20:05:34.741Z,100.00
2023-02-09T20:08:04.493Z,100.00
2023-02-09T20:10:32.239Z,100.00
2023-02-09T20:13:00.919Z,100.00
2023-02-09T20:15:30.009Z,100.00
2023-02-09T20:17:57.949Z,100.00
2023-02-09T20:20:25.879Z,100.00
2023-02-09T20:22:53.619Z,100.00
2023-02-09T20:25:21.530Z,100.00
2023-02-09T20:27:50.643Z,100.00
2023-02-09T20:30:18.513Z,100.00
2023-02-09T20:32:50.294Z,100.00
2023-02-09T20:35:18.179Z,100.00
2023-02-09T20:37:45.947Z,100.00
2023-02-09T20:40:14.036Z,100.00
2023-02-09T20:42:59.067Z,100.00
2023-02-09T20:45:44.457Z,100.00
2023-02-09T20:48:13.754Z,100.00
2023-02-09T20:50:41.635Z,100.00
2023-02-09T20:53:09.370Z,100.00
2023-02-09T20:55:37.772Z,100.00
2023-02-09T20:58:05.530Z,100.00
2023-02-09T21:00:33.351Z,100.00
2023-02-09T21:03:01.489Z,100.00
2023-02-09T21:05:30.877Z,100.00
2023-02-09T21:07:58.624Z,100.00
2023-02-09T21:10:26.938Z,100.00
2023-02-09T21:12:54.644Z,100.00
2023-02-09T21:15:22.398Z,100.00
2023-02-09T21:17:51.708Z,100.00
2023-02-09T21:20:19.626Z,100.00
2023-02-09T21:22:50.129Z,100.00
2023-02-09T21:25:19.056Z,100.00
2023-02-09T21:27:46.959Z,100.00
2023-02-09T21:30:16.491Z,100.00
2023-02-09T21:32:44.312Z,100.00
2023-02-09T21:35:12.068Z,100.00
2023-02-09T21:37:42.737Z,100.00
2023-02-09T21:40:13.788Z,100.00
2023-02-09T21:42:41.488Z,100.00
2023-02-09T21:45:10.269Z,100.00
2023-02-09T21:47:39.947Z,100.00
2023-02-09T21:50:09.718Z,100.00
2023-02-09T21:52:37.693Z,100.00
2023-02-09T21:55:08.168Z,100.00
2023-02-09T21:57:38.261Z,100.00
2023-02-09T22:00:08.878Z,100.00
2023-02-09T22:02:37.203Z,100.00
2023-02-09T22:05:05.487Z,100.00
2023-02-09T22:07:34.927Z,100.00
2023-02-09T22:10:03.065Z,100.00
2023-02-09T22:12:30.833Z,100.00
2023-02-09T22:14:59.907Z,100.00
2023-02-09T22:17:27.911Z,100.00
2023-02-09T22:19:55.630Z,100.00
2023-02-09T22:22:23.366Z,100.00
2023-02-09T22:24:51.090Z,100.00
2023-02-09T22:27:18.881Z,100.00
2023-02-09T22:29:46.631Z,100.00
2023-02-09T22:32:15.722Z,100.00
2023-02-09T22:34:43.466Z,100.00
2023-02-09T22:37:11.264Z,100.00
2023-02-09T22:39:39.041Z,100.00
2023-02-09T22:42:07.001Z,100.00
2023-02-09T22:44:34.949Z,100.00
2023-02-09T22:47:02.645Z,100.00
2023-02-09T22:49:31.886Z,100.00
2023-02-09T22:51:59.594Z,100.00
2023-02-09T22:54:27.354Z,100.00
2023-02-09T22:56:55.071Z,100.00
2023-02-09T22:59:22.933Z,100.00
2023-02-09T23:01:50.770Z,100.00
2023-02-09T23:04:18.645Z,100.00
2023-02-09T23:06:47.934Z,100.00
2023-02-09T23:09:16.156Z,100.00
2023-02-09T23:11:44.318Z,100.00
2023-02-09T23:14:12.621Z,100.00
2023-02-09T23:16:42.290Z,100.00
2023-02-09T23:19:13.614Z,100.00
2023-02-09T23:21:44.540Z,100.00
2023-02-09T23:24:15.887Z,100.00
2023-02-09T23:26:44.388Z,100.00
2023-02-09T23:29:14.074Z,100.00
2023-02-09T23:31:42.314Z,100.00
2023-02-09T23:34:14.184Z,100.00
2023-02-09T23:36:42.063Z,100.00
2023-02-09T23:39:09.907Z,100.00
2023-02-09T23:41:38.990Z,100.00
2023-02-09T23:44:06.703Z,100.00
2023-02-09T23:46:34.533Z,100.00
2023-02-09T23:49:02.283Z,100.00
2023-02-09T23:51:31.975Z,100.00
2023-02-09T23:54:01.322Z,100.00
2023-02-09T23:56:31.782Z,100.00
2023-02-09T23:59:00.926Z,100.00
